Time;durP1;ratioP1;P1;durP2;ratioP2;P2;SDS_P1;SDS_P2;PMS_P1;PMS_P2;Temp;Humidity;BMP_temperature;BMP_pressure;BME280_temperature;BME280_humidity;BME280_pressure;Samples;Min_cycle;Max_cycle;Signal;HPM_P1;HPM_P2
2022/03/23 00:00:39;;;;;;;0.90;0.90;;;4.20;99.90;;;;;;5100245;28;20178;-76
2022/03/23 00:03:05;;;;;;;3.13;2.30;;;4.30;99.90;;;;;;5113506;28;20167;-76
2022/03/23 00:05:32;;;;;;;1.47;1.37;;;4.20;99.90;;;;;;5102452;28;20674;-76
2022/03/23 00:07:58;;;;;;;4.00;2.97;;;4.20;99.90;;;;;;5107407;28;20274;-77
2022/03/23 00:10:24;;;;;;;2.20;1.90;;;4.30;99.90;;;;;;5113813;28;20297;-75
2022/03/23 00:12:51;;;;;;;1.77;1.50;;;4.30;99.90;;;;;;5111654;28;20175;-76
2022/03/23 00:15:17;;;;;;;3.37;2.63;;;4.50;99.90;;;;;;5114354;28;20163;-76
2022/03/23 00:17:42;;;;;;;3.70;1.17;;;4.60;99.90;;;;;;5113887;28;20209;-76
2022/03/23 00:20:09;;;;;;;0.67;0.67;;;4.50;99.90;;;;;;5113623;28;20175;-77
2022/03/23 00:22:34;;;;;;;2.13;1.93;;;4.50;99.90;;;;;;5113207;28;20608;-77
2022/03/23 00:25:00;;;;;;;2.87;2.03;;;4.50;99.90;;;;;;5113581;28;20203;-77
2022/03/23 00:27:25;;;;;;;3.10;2.37;;;4.50;99.90;;;;;;5112345;28;20225;-76
2022/03/23 00:29:51;;;;;;;1.10;1.07;;;4.40;99.90;;;;;;5113490;28;20191;-76
2022/03/23 00:32:17;;;;;;;1.10;1.03;;;4.20;99.90;;;;;;5113496;28;20167;-77
2022/03/23 00:34:42;;;;;;;1.23;1.23;;;4.00;99.90;;;;;;5113600;28;20175;-77
2022/03/23 00:37:08;;;;;;;1.43;1.33;;;3.90;99.90;;;;;;5113673;28;20206;-77
2022/03/23 00:39:33;;;;;;;0.30;0.30;;;3.80;99.90;;;;;;5113602;28;20202;-77
2022/03/23 00:41:59;;;;;;;11.03;2.40;;;3.60;99.90;;;;;;5112787;28;20183;-77
2022/03/23 00:44:24;;;;;;;0.50;0.47;;;3.50;99.90;;;;;;5112914;28;20220;-77
2022/03/23 00:46:50;;;;;;;1.20;1.20;;;3.40;99.90;;;;;;5112769;28;20737;-77
2022/03/23 00:49:16;;;;;;;2.37;2.27;;;3.30;99.90;;;;;;5112555;28;20179;-77
2022/03/23 00:51:41;;;;;;;1.50;1.37;;;3.20;99.90;;;;;;5112506;28;20207;-75
2022/03/23 00:54:09;;;;;;;2.40;1.43;;;3.10;99.90;;;;;;5112682;28;20175;-77
2022/03/23 00:56:38;;;;;;;1.63;1.53;;;3.10;99.90;;;;;;5112618;28;20181;-76
2022/03/23 00:59:04;;;;;;;8.13;3.63;;;3.10;99.90;;;;;;5112771;28;20175;-76
2022/03/23 01:01:30;;;;;;;1.13;1.13;;;3.10;99.90;;;;;;5112393;28;20183;-75
2022/03/23 01:03:56;;;;;;;1.87;1.77;;;3.10;99.90;;;;;;5111161;28;20236;-77
2022/03/23 01:06:22;;;;;;;2.53;2.37;;;3.10;99.90;;;;;;5096918;28;20191;-76
2022/03/23 01:08:48;;;;;;;4.13;3.20;;;3.00;99.90;;;;;;5112430;28;20274;-77
2022/03/23 01:11:13;;;;;;;0.73;0.73;;;3.00;99.90;;;;;;5110079;28;20250;-77
2022/03/23 01:13:39;;;;;;;3.70;3.50;;;3.00;99.90;;;;;;5112172;28;20695;-76
2022/03/23 01:16:05;;;;;;;5.27;2.40;;;3.00;99.90;;;;;;5112537;28;20227;-76
2022/03/23 01:18:31;;;;;;;2.47;2.37;;;3.00;99.90;;;;;;5111931;28;20671;-76
2022/03/23 01:20:57;;;;;;;3.50;3.00;;;3.00;99.90;;;;;;5112266;28;20322;-76
2022/03/23 01:23:23;;;;;;;2.23;2.13;;;2.90;99.90;;;;;;5111014;28;20277;-76
2022/03/23 01:25:48;;;;;;;2.70;2.57;;;3.00;99.90;;;;;;5112130;28;20187;-77
2022/03/23 01:28:14;;;;;;;0.70;0.70;;;3.00;99.90;;;;;;5112182;28;20588;-78
2022/03/23 01:30:40;;;;;;;3.03;2.87;;;3.00;99.90;;;;;;5098309;28;20709;-76
2022/03/23 01:33:06;;;;;;;0.47;0.47;;;3.00;99.90;;;;;;5111712;28;20179;-76
2022/03/23 01:35:32;;;;;;;12.27;4.07;;;3.00;99.90;;;;;;5111996;28;20697;-76
2022/03/23 01:37:58;;;;;;;1.40;0.77;;;3.00;99.90;;;;;;5112012;28;20214;-76
2022/03/23 01:40:24;;;;;;;0.90;0.90;;;3.00;99.90;;;;;;5111959;28;20539;-76
2022/03/23 01:42:50;;;;;;;0.50;0.50;;;3.00;99.90;;;;;;5111923;28;20179;-76
2022/03/23 01:45:15;;;;;;;1.20;1.20;;;3.00;99.90;;;;;;5111919;28;20183;-77
2022/03/23 01:47:41;;;;;;;2.43;2.33;;;2.90;99.90;;;;;;5111719;28;20604;-76
2022/03/23 01:50:09;;;;;;;2.00;1.90;;;2.90;99.90;;;;;;5111823;28;20206;-76
2022/03/23 01:52:35;;;;;;;1.90;1.80;;;2.90;99.90;;;;;;5111537;28;20171;-76
2022/03/23 01:55:05;;;;;;;0.83;0.83;;;2.90;99.90;;;;;;5110538;28;20210;-76
2022/03/23 01:57:31;;;;;;;2.63;1.97;;;2.90;99.90;;;;;;5112156;28;20191;-75
2022/03/23 01:59:57;;;;;;;2.93;2.73;;;3.00;99.90;;;;;;5111883;28;20182;-76
2022/03/23 02:02:22;;;;;;;2.43;2.23;;;3.10;99.90;;;;;;5111377;28;20179;-77
2022/03/23 02:04:48;;;;;;;2.63;2.43;;;3.20;99.90;;;;;;5107524;28;20187;-76
2022/03/23 02:07:14;;;;;;;7.83;1.87;;;3.20;99.90;;;;;;5099154;28;20611;-76
2022/03/23 02:09:40;;;;;;;0.47;0.47;;;3.30;99.90;;;;;;5110325;28;20198;-76
2022/03/23 02:12:08;;;;;;;2.63;2.53;;;3.30;99.90;;;;;;5104751;28;20567;-76
2022/03/23 02:14:34;;;;;;;2.33;2.20;;;3.30;99.90;;;;;;5111699;28;20198;-76
2022/03/23 02:17:00;;;;;;;2.13;2.03;;;3.20;99.90;;;;;;5110190;28;20207;-77
2022/03/23 02:19:25;;;;;;;0.67;0.67;;;3.20;99.90;;;;;;5096974;28;20179;-76
2022/03/23 02:21:55;;;;;;;3.03;0.87;;;3.10;99.90;;;;;;5091437;28;20168;-76
2022/03/23 02:24:28;;;;;;;2.97;2.47;;;3.00;99.90;;;;;;5091224;28;20341;-76
2022/03/23 02:26:55;;;;;;;1.33;1.33;;;3.00;99.90;;;;;;5111504;28;20674;-75
2022/03/23 02:29:22;;;;;;;2.57;2.37;;;2.80;99.90;;;;;;5112619;28;20178;-75
2022/03/23 02:31:49;;;;;;;2.13;2.03;;;2.80;99.90;;;;;;5114261;28;20622;-75
2022/03/23 02:34:14;;;;;;;0.60;0.60;;;2.60;99.90;;;;;;5118246;28;20187;-76
2022/03/23 02:36:40;;;;;;;1.23;1.23;;;2.50;99.90;;;;;;5128624;28;20201;-77
2022/03/23 02:39:05;;;;;;;2.13;1.33;;;2.30;99.90;;;;;;5062520;22;20239;-74
2022/03/23 02:41:31;;;;;;;2.37;1.50;;;2.20;99.90;;;;;;5033923;28;20189;-74
2022/03/23 02:43:59;;;;;;;2.90;1.33;;;2.20;99.90;;;;;;5034553;28;20196;-74
2022/03/23 02:46:26;;;;;;;5.40;2.53;;;2.10;99.90;;;;;;5034628;28;20191;-74
2022/03/23 02:48:51;;;;;;;1.50;1.40;;;2.20;99.90;;;;;;5051007;28;20295;-74
2022/03/23 02:51:17;;;;;;;1.50;1.30;;;2.30;99.90;;;;;;5054173;28;20299;-73
2022/03/23 03:02:40;;;;;;;5.00;2.20;;;2.20;99.90;;;;;;5054306;28;20184;-74
2022/03/23 03:05:08;;;;;;;1.43;1.00;;;2.10;99.90;;;;;;5049002;28;20269;-75
2022/03/23 03:10:18;;;;;;;1.90;1.80;;;2.00;99.90;;;;;;5040317;28;20224;-74
2022/03/23 03:12:44;;;;;;;4.83;2.47;;;2.00;99.90;;;;;;5053683;28;20187;-74
2022/03/23 03:15:13;;;;;;;1.60;1.03;;;2.00;99.90;;;;;;5054001;28;20185;-75
2022/03/23 03:17:39;;;;;;;3.60;3.30;;;2.00;99.90;;;;;;5035956;28;20364;-74
2022/03/23 03:20:06;;;;;;;1.17;1.17;;;2.00;99.90;;;;;;5053880;28;20227;-74
2022/03/23 03:22:40;;;;;;;0.87;0.87;;;2.00;99.90;;;;;;5035736;28;20187;-74
2022/03/23 03:25:07;;;;;;;3.37;3.07;;;2.00;99.90;;;;;;5028443;28;20241;-74
2022/03/23 03:27:34;;;;;;;2.43;2.27;;;1.90;99.90;;;;;;5035755;28;20336;-74
2022/03/23 03:30:11;;;;;;;1.53;1.43;;;1.80;99.90;;;;;;5053720;28;20253;-74
2022/03/23 03:32:36;;;;;;;2.97;2.77;;;1.80;99.90;;;;;;5053379;28;20179;-74
2022/03/23 03:35:02;;;;;;;1.43;0.73;;;1.80;99.90;;;;;;5053768;28;20192;-74
2022/03/23 03:37:28;;;;;;;3.40;3.20;;;1.90;99.90;;;;;;5053068;28;20218;-74
2022/03/23 03:39:54;;;;;;;3.77;2.10;;;1.90;99.90;;;;;;5053351;28;20211;-74
2022/03/23 03:42:19;;;;;;;3.50;3.30;;;2.00;99.90;;;;;;5052251;28;20211;-74
2022/03/23 03:44:45;;;;;;;2.87;2.77;;;2.10;99.90;;;;;;5053513;28;20271;-74
2022/03/23 03:47:11;;;;;;;4.50;2.70;;;2.10;99.90;;;;;;5053328;28;20216;-74
2022/03/23 03:49:38;;;;;;;4.43;4.13;;;2.10;99.90;;;;;;5026839;28;20631;-74
2022/03/23 03:52:04;;;;;;;1.57;1.50;;;2.20;99.90;;;;;;5016991;28;20534;-74
2022/03/23 03:54:30;;;;;;;2.07;1.90;;;2.30;99.90;;;;;;5044639;28;20759;-73
2022/03/23 03:56:55;;;;;;;3.13;2.93;;;2.20;99.90;;;;;;5035459;28;20267;-73
2022/03/23 03:59:21;;;;;;;2.03;1.93;;;2.10;99.90;;;;;;5053249;28;20605;-74
2022/03/23 04:01:46;;;;;;;1.13;1.13;;;2.00;99.90;;;;;;5050863;28;20555;-74
2022/03/23 04:04:12;;;;;;;0.80;0.73;;;1.80;99.90;;;;;;5015440;28;20351;-74
2022/03/23 04:06:37;;;;;;;3.00;1.73;;;1.70;99.90;;;;;;5035580;28;20199;-73
2022/03/23 04:09:03;;;;;;;1.30;1.27;;;1.70;99.90;;;;;;5053123;28;20192;-74
2022/03/23 04:11:30;;;;;;;1.07;1.07;;;1.70;99.90;;;;;;5052541;28;20724;-74
2022/03/23 04:13:55;;;;;;;0.87;0.87;;;1.60;99.90;;;;;;5052944;28;20255;-73
2022/03/23 04:16:21;;;;;;;2.90;2.03;;;1.60;99.90;;;;;;5052812;28;20179;-74
2022/03/23 04:18:47;;;;;;;2.13;1.33;;;1.50;99.90;;;;;;5052769;28;20266;-74
2022/03/23 04:21:12;;;;;;;2.17;2.07;;;1.60;99.90;;;;;;5034533;28;20183;-73
2022/03/23 04:23:39;;;;;;;3.00;2.73;;;1.70;99.90;;;;;;5052494;28;20258;-74
2022/03/23 04:26:04;;;;;;;2.17;2.00;;;1.80;99.90;;;;;;5052641;28;20183;-73
2022/03/23 04:28:30;;;;;;;5.43;4.93;;;1.90;99.90;;;;;;5052521;28;20209;-74
2022/03/23 04:30:56;;;;;;;3.40;3.10;;;2.00;99.90;;;;;;5052475;28;20197;-73
2022/03/23 04:33:21;;;;;;;2.17;2.00;;;1.90;99.90;;;;;;5052362;28;20189;-74
2022/03/23 04:35:47;;;;;;;2.63;2.30;;;1.90;99.90;;;;;;5052212;28;20187;-74
2022/03/23 04:38:13;;;;;;;3.13;2.73;;;1.90;99.90;;;;;;5034253;28;20219;-74
2022/03/23 04:40:39;;;;;;;0.57;0.57;;;1.90;99.90;;;;;;5052419;28;20261;-74
2022/03/23 04:43:04;;;;;;;2.53;2.33;;;1.90;99.90;;;;;;5051819;28;20175;-74
2022/03/23 04:45:30;;;;;;;2.87;1.90;;;1.90;99.90;;;;;;5052372;28;20277;-73
2022/03/23 04:47:55;;;;;;;4.60;4.30;;;1.90;99.90;;;;;;5034614;28;20256;-74
2022/03/23 04:50:21;;;;;;;1.03;1.03;;;1.90;99.90;;;;;;5033944;28;20217;-74
2022/03/23 04:52:48;;;;;;;6.30;2.20;;;1.90;99.90;;;;;;5033405;28;20192;-73
2022/03/23 04:55:15;;;;;;;1.37;1.33;;;1.80;99.90;;;;;;5051968;28;20683;-74
2022/03/23 04:57:42;;;;;;;2.90;2.80;;;1.70;99.90;;;;;;5051939;28;20690;-74
2022/03/23 05:00:13;;;;;;;3.40;3.03;;;1.70;99.90;;;;;;5052204;28;20678;-74
2022/03/23 05:02:39;;;;;;;3.90;3.60;;;1.60;99.90;;;;;;5052512;28;20669;-74
2022/03/23 05:05:06;;;;;;;2.60;1.57;;;1.40;99.90;;;;;;5029965;28;20186;-74
2022/03/23 05:07:31;;;;;;;4.03;2.80;;;1.40;99.90;;;;;;5042334;28;20198;-74
2022/03/23 05:09:57;;;;;;;4.07;3.77;;;1.50;99.90;;;;;;5033948;28;20208;-74
2022/03/23 05:12:22;;;;;;;3.00;2.37;;;1.50;99.90;;;;;;5051445;28;20216;-74
2022/03/23 05:14:48;;;;;;;2.60;1.17;;;1.50;99.90;;;;;;5051828;28;20193;-74
2022/03/23 05:17:13;;;;;;;3.43;3.13;;;1.50;99.90;;;;;;5034471;28;20215;-74
2022/03/23 05:19:39;;;;;;;3.00;2.53;;;1.40;99.90;;;;;;5052245;28;20696;-73
2022/03/23 05:22:05;;;;;;;3.10;2.80;;;1.40;99.90;;;;;;5035163;28;20185;-74
2022/03/23 05:24:30;;;;;;;2.30;2.07;;;1.40;99.90;;;;;;5051597;28;20268;-73
2022/03/23 05:26:56;;;;;;;2.37;2.27;;;1.50;99.90;;;;;;5042011;28;20213;-73
2022/03/23 05:29:22;;;;;;;1.23;1.23;;;1.40;99.90;;;;;;5031896;28;20213;-73
2022/03/23 05:31:47;;;;;;;2.17;2.00;;;1.40;99.90;;;;;;5041076;28;20182;-74
2022/03/23 05:34:13;;;;;;;3.97;3.73;;;1.40;99.90;;;;;;5035279;28;20194;-74
2022/03/23 05:36:39;;;;;;;1.60;1.03;;;1.40;99.90;;;;;;5041109;28;20233;-74
2022/03/23 05:39:04;;;;;;;1.23;1.23;;;1.40;99.90;;;;;;5051296;28;20296;-74
2022/03/23 05:41:30;;;;;;;2.50;2.27;;;1.40;99.90;;;;;;5047792;28;20706;-74
2022/03/23 05:43:55;;;;;;;5.40;2.53;;;1.40;99.90;;;;;;5016215;28;20186;-73
2022/03/23 05:46:21;;;;;;;2.33;2.13;;;1.40;99.90;;;;;;5011516;28;20214;-73
2022/03/23 05:48:47;;;;;;;9.23;5.47;;;1.40;99.90;;;;;;5022577;28;20190;-73
2022/03/23 05:51:12;;;;;;;2.13;1.93;;;1.50;99.90;;;;;;5028798;28;20241;-72
2022/03/23 05:53:38;;;;;;;2.73;2.63;;;1.50;99.90;;;;;;5030365;28;20192;-74
2022/03/23 05:56:07;;;;;;;2.47;2.27;;;1.50;99.90;;;;;;5030871;28;20176;-73
2022/03/23 05:58:34;;;;;;;4.17;3.90;;;1.50;99.90;;;;;;5031002;28;20208;-74
2022/03/23 06:01:00;;;;;;;2.83;1.07;;;1.60;99.90;;;;;;5030840;28;20586;-74
2022/03/23 06:03:26;;;;;;;4.63;4.33;;;1.70;99.90;;;;;;5030466;28;20650;-74
2022/03/23 06:05:52;;;;;;;0.60;0.60;;;1.80;99.90;;;;;;5033561;28;20268;-74
2022/03/23 06:08:17;;;;;;;2.03;1.80;;;1.90;99.90;;;;;;5038094;28;20219;-74
2022/03/23 06:10:43;;;;;;;3.80;3.43;;;1.90;99.90;;;;;;5034603;28;20206;-73
2022/03/23 06:13:09;;;;;;;2.90;2.50;;;2.00;99.90;;;;;;5035015;28;20199;-76
2022/03/23 06:15:35;;;;;;;2.57;1.90;;;2.10;99.90;;;;;;5039673;28;20174;-76
2022/03/23 06:18:00;;;;;;;0.80;0.80;;;2.20;99.90;;;;;;5048932;28;20570;-77
2022/03/23 06:20:26;;;;;;;1.47;1.13;;;2.20;99.90;;;;;;5039300;28;20180;-76
2022/03/23 06:22:51;;;;;;;1.50;1.00;;;2.20;99.90;;;;;;5037768;28;20190;-76
2022/03/23 06:25:17;;;;;;;0.57;0.57;;;2.30;99.90;;;;;;5042289;28;20249;-76
2022/03/23 06:27:42;;;;;;;2.50;2.30;;;2.40;99.90;;;;;;5047707;28;20223;-76
2022/03/23 06:30:08;;;;;;;3.70;3.40;;;2.50;99.90;;;;;;5022824;28;20212;-75
2022/03/23 06:32:34;;;;;;;1.17;1.07;;;2.60;99.90;;;;;;5046900;28;20229;-76
2022/03/23 06:35:01;;;;;;;1.60;1.50;;;2.60;99.90;;;;;;5055184;28;20183;-76
2022/03/23 06:37:27;;;;;;;1.23;1.23;;;2.80;99.90;;;;;;5041491;28;20225;-76
2022/03/23 06:39:53;;;;;;;3.07;2.80;;;2.90;99.90;;;;;;5053846;28;20188;-76
2022/03/23 06:42:18;;;;;;;0.73;0.73;;;3.00;99.90;;;;;;5037169;28;20192;-77
2022/03/23 06:44:44;;;;;;;7.27;5.63;;;3.20;99.90;;;;;;5026209;28;20182;-76
2022/03/23 06:47:09;;;;;;;2.10;2.03;;;3.50;99.90;;;;;;5051678;28;20665;-77
2022/03/23 06:49:35;;;;;;;2.50;2.40;;;3.70;99.90;;;;;;5054419;28;20237;-77
2022/03/23 06:52:01;;;;;;;2.10;2.00;;;3.90;99.90;;;;;;5042340;28;20180;-77
2022/03/23 06:54:26;;;;;;;2.50;2.40;;;4.00;99.90;;;;;;5049607;28;20192;-76
2022/03/23 06:56:52;;;;;;;4.10;3.70;;;4.20;99.90;;;;;;5053196;28;20196;-76
2022/03/23 06:59:18;;;;;;;5.83;2.50;;;4.30;99.90;;;;;;5054622;28;20539;-77
2022/03/23 07:01:44;;;;;;;5.40;1.70;;;4.50;99.90;;;;;;5054188;28;20177;-77
2022/03/23 07:04:10;;;;;;;2.17;2.07;;;4.60;99.90;;;;;;5027602;28;20181;-77
2022/03/23 07:06:35;;;;;;;2.40;2.20;;;4.80;99.90;;;;;;5036905;28;20174;-76
2022/03/23 07:11:45;;;;;;;5.30;2.67;;;5.10;99.90;;;;;;5036135;28;20579;-76
2022/03/23 07:14:10;;;;;;;3.83;3.53;;;5.30;99.90;;;;;;5023794;28;20174;-77
2022/03/23 07:16:36;;;;;;;3.07;2.87;;;5.60;99.90;;;;;;5028660;28;20185;-75
2022/03/23 07:19:01;;;;;;;3.40;3.20;;;5.80;99.90;;;;;;5034828;28;20193;-76
2022/03/23 07:21:27;;;;;;;4.20;3.70;;;5.90;99.90;;;;;;5023398;28;20208;-77
2022/03/23 07:23:53;;;;;;;4.00;3.13;;;6.10;99.90;;;;;;5037366;28;20357;-76
2022/03/23 07:26:19;;;;;;;3.50;3.27;;;6.30;99.90;;;;;;5049415;28;20182;-76
2022/03/23 07:28:44;;;;;;;19.83;4.53;;;6.50;99.90;;;;;;5046930;28;20201;-76
2022/03/23 07:31:10;;;;;;;6.67;3.67;;;6.80;99.90;;;;;;5041660;28;20201;-76
2022/03/23 07:33:36;;;;;;;5.10;4.70;;;7.10;99.90;;;;;;5041381;28;20197;-74
2022/03/23 07:36:03;;;;;;;2.60;2.43;;;7.30;99.90;;;;;;5036130;28;20177;-74
2022/03/23 07:38:29;;;;;;;5.60;5.20;;;7.50;99.90;;;;;;5016173;28;20218;-74
2022/03/23 07:40:55;;;;;;;4.00;3.67;;;7.70;99.90;;;;;;5044289;28;20194;-74
2022/03/23 07:43:20;;;;;;;4.90;2.73;;;7.80;99.90;;;;;;5012987;28;20280;-73
2022/03/23 07:45:47;;;;;;;3.63;3.33;;;7.90;99.90;;;;;;5014601;28;20620;-74
2022/03/23 07:48:12;;;;;;;5.87;4.87;;;7.90;99.90;;;;;;5034658;28;20232;-74
2022/03/23 07:50:38;;;;;;;4.57;4.10;;;8.00;99.90;;;;;;5026988;28;20676;-73
2022/03/23 07:53:03;;;;;;;2.90;2.73;;;8.00;99.90;;;;;;5035929;28;20188;-74
2022/03/23 07:55:29;;;;;;;8.57;3.10;;;8.10;99.90;;;;;;5018756;28;20208;-73
2022/03/23 07:57:54;;;;;;;4.17;3.87;;;8.20;99.90;;;;;;5014898;28;20233;-73
2022/03/23 08:00:21;;;;;;;3.13;2.40;;;8.30;99.90;;;;;;5038609;28;20181;-74
2022/03/23 08:02:47;;;;;;;5.23;3.70;;;8.50;99.90;;;;;;5043654;28;20260;-74
2022/03/23 08:05:13;;;;;;;5.20;3.27;;;8.60;99.90;;;;;;5040276;28;20269;-74
2022/03/23 08:07:38;;;;;;;6.07;3.97;;;8.70;99.90;;;;;;5014846;28;20700;-73
2022/03/23 08:10:05;;;;;;;3.03;2.80;;;8.90;99.90;;;;;;5014641;28;20207;-74
2022/03/23 08:12:30;;;;;;;6.20;4.97;;;9.10;99.90;;;;;;5042801;28;20181;-74
2022/03/23 08:14:56;;;;;;;5.13;4.03;;;9.20;99.90;;;;;;5036614;28;20188;-73
2022/03/23 08:17:21;;;;;;;3.70;2.67;;;9.50;99.90;;;;;;5043955;28;20201;-74
2022/03/23 08:20:32;;;;;;;4.10;3.80;;;9.60;99.90;;;;;;5032262;28;20265;-74
2022/03/23 08:22:32;;;;;;;12.73;5.20;;;9.70;99.90;;;;;;5030178;28;20709;-74
2022/03/23 08:24:58;;;;;;;5.47;4.90;;;9.90;99.90;;;;;;5014381;28;20188;-73
2022/03/23 08:27:23;;;;;;;3.73;2.63;;;10.10;99.90;;;;;;5049505;28;20201;-73
2022/03/23 08:29:49;;;;;;;3.23;2.10;;;10.20;99.90;;;;;;5026604;28;20203;-74
2022/03/23 08:32:14;;;;;;;3.30;3.00;;;10.30;99.90;;;;;;5035025;28;20185;-75
2022/03/23 08:34:40;;;;;;;5.60;3.23;;;10.40;99.90;;;;;;5046808;28;20189;-73
2022/03/23 08:37:05;;;;;;;5.77;4.17;;;10.60;99.90;;;;;;5037012;28;20549;-74
2022/03/23 08:39:31;;;;;;;6.17;4.87;;;10.70;99.90;;;;;;5108372;23;20223;-77
2022/03/23 08:41:56;;;;;;;6.40;5.60;;;10.90;99.90;;;;;;5111106;28;20190;-77
2022/03/23 08:44:22;;;;;;;6.47;3.80;;;11.00;99.90;;;;;;5111856;28;20175;-77
2022/03/23 08:46:47;;;;;;;4.50;4.17;;;11.10;99.90;;;;;;5111946;28;20183;-78
2022/03/23 08:49:13;;;;;;;2.53;2.33;;;11.40;99.90;;;;;;5111690;28;20195;-77
2022/03/23 08:51:39;;;;;;;4.10;3.63;;;11.80;99.90;;;;;;5094318;28;20297;-78
2022/03/23 08:54:04;;;;;;;8.17;3.93;;;11.90;99.90;;;;;;5112072;28;20258;-79
2022/03/23 08:56:30;;;;;;;5.43;3.00;;;12.00;99.90;;;;;;5111021;28;20236;-78
2022/03/23 08:58:56;;;;;;;7.20;6.63;;;12.30;99.90;;;;;;5112152;28;20195;-78
2022/03/23 09:01:21;;;;;;;6.83;3.20;;;12.40;99.90;;;;;;5112100;28;20262;-78
2022/03/23 09:03:47;;;;;;;6.77;3.90;;;12.40;99.90;;;;;;5111865;28;20680;-78
2022/03/23 09:06:12;;;;;;;5.97;3.87;;;12.40;99.90;;;;;;5102991;28;20182;-78
2022/03/23 09:08:38;;;;;;;4.13;3.67;;;12.70;99.90;;;;;;5094373;28;20199;-78
2022/03/23 09:11:04;;;;;;;5.60;4.97;;;13.10;99.90;;;;;;5111817;28;20627;-77
2022/03/23 09:13:29;;;;;;;5.10;3.87;;;13.50;99.90;;;;;;5111227;28;20167;-78
2022/03/23 09:15:55;;;;;;;16.50;5.73;;;13.70;99.90;;;;;;5112682;28;20231;-78
2022/03/23 09:18:21;;;;;;;3.93;3.27;;;13.80;99.90;;;;;;5112571;28;20696;-79
2022/03/23 09:20:46;;;;;;;8.57;4.73;;;13.80;99.90;;;;;;5102251;28;20235;-78
2022/03/23 09:23:12;;;;;;;5.57;5.13;;;14.10;99.90;;;;;;5112408;28;20264;-79
2022/03/23 09:25:39;;;;;;;6.83;4.73;;;14.10;99.90;;;;;;5112125;28;20216;-78
2022/03/23 09:28:05;;;;;;;3.13;2.87;;;14.10;99.90;;;;;;5112471;28;20207;-78
2022/03/23 09:30:31;;;;;;;11.03;4.97;;;14.50;99.90;;;;;;5111680;28;20277;-77
2022/03/23 09:32:57;;;;;;;4.47;4.00;;;14.40;99.90;;;;;;5112760;28;20240;-77
2022/03/23 09:35:23;;;;;;;7.30;6.07;;;14.40;99.90;;;;;;5111854;28;20163;-77
2022/03/23 09:37:48;;;;;;;5.87;3.80;;;14.50;99.90;;;;;;5111760;28;20275;-78
2022/03/23 09:40:30;;;;;;;8.30;4.33;;;14.70;99.90;;;;;;5111593;28;20220;-78
2022/03/23 09:42:56;;;;;;;5.30;4.40;;;14.80;99.90;;;;;;5098899;28;20180;-76
2022/03/23 09:48:02;;;;;;;13.10;5.27;;;15.00;99.90;;;;;;5112412;28;20204;-78
2022/03/23 09:50:29;;;;;;;2.60;2.40;;;15.10;99.90;;;;;;5112705;28;20221;-79
2022/03/23 09:52:55;;;;;;;10.20;4.73;;;15.30;99.90;;;;;;5112023;28;20215;-78
2022/03/23 09:55:21;;;;;;;11.63;5.07;;;15.30;99.90;;;;;;5098692;28;20195;-77
2022/03/23 09:57:46;;;;;;;3.93;3.33;;;15.30;99.90;;;;;;5111664;28;20201;-78
2022/03/23 10:00:13;;;;;;;6.47;3.90;;;15.50;99.90;;;;;;5111769;28;20227;-78
2022/03/23 10:02:39;;;;;;;5.90;3.57;;;15.70;99.90;;;;;;5111840;28;20172;-79
2022/03/23 10:05:29;;;;;;;7.80;5.13;;;15.80;99.90;;;;;;5112129;28;20549;-78
2022/03/23 10:08:09;;;;;;;7.90;5.33;;;16.00;99.90;;;;;;5111920;28;20574;-78
2022/03/23 10:10:57;;;;;;;7.83;5.37;;;16.00;99.90;;;;;;5090574;28;20194;-78
2022/03/23 10:14:09;;;;;;;8.50;5.90;;;16.20;99.90;;;;;;5099296;28;20194;-78
2022/03/23 10:17:12;;;;;;;4.33;4.03;;;16.60;99.90;;;;;;5112104;28;20749;-77
2022/03/23 10:19:44;;;;;;;19.57;5.47;;;17.00;99.90;;;;;;5072883;28;20224;-78
2022/03/23 10:22:13;;;;;;;12.43;4.87;;;17.10;99.90;;;;;;5111612;28;20199;-79
2022/03/23 10:24:38;;;;;;;8.23;5.30;;;17.20;99.90;;;;;;5111800;28;20677;-78
2022/03/23 10:27:09;;;;;;;11.53;4.93;;;17.40;99.90;;;;;;5113347;28;20179;-78
2022/03/23 10:29:46;;;;;;;6.77;5.27;;;17.50;99.90;;;;;;5104048;28;20187;-78
2022/03/23 10:32:13;;;;;;;8.30;6.33;;;17.70;99.90;;;;;;5112268;28;20224;-79
2022/03/23 10:34:42;;;;;;;9.20;6.07;;;17.80;99.90;;;;;;5112875;28;20179;-78
2022/03/23 10:37:09;;;;;;;8.80;5.70;;;18.10;99.90;;;;;;5101174;28;20173;-80
2022/03/23 10:39:34;;;;;;;15.27;6.63;;;18.30;96.60;;;;;;5112551;28;20234;-77
2022/03/23 10:42:12;;;;;;;11.27;3.80;;;18.50;95.10;;;;;;5113647;28;20179;-77
2022/03/23 10:44:38;;;;;;;5.93;5.30;;;18.70;91.90;;;;;;5093051;28;20182;-78
2022/03/23 10:47:04;;;;;;;13.77;5.47;;;18.90;91.90;;;;;;5100208;28;20242;-77
2022/03/23 10:49:38;;;;;;;9.93;6.07;;;18.80;90.80;;;;;;5112885;28;20267;-77
2022/03/23 10:52:15;;;;;;;14.77;5.73;;;18.70;90.30;;;;;;5116677;28;20179;-77
2022/03/23 10:54:56;;;;;;;9.90;4.93;;;19.00;87.90;;;;;;5111470;28;20178;-78
2022/03/23 10:57:45;;;;;;;12.07;5.43;;;18.80;87.60;;;;;;5116841;28;20171;-79
2022/03/23 11:00:18;;;;;;;13.20;5.43;;;19.10;87.00;;;;;;5116602;28;20167;-79
2022/03/23 11:02:48;;;;;;;9.33;5.20;;;19.60;81.90;;;;;;5116416;28;20179;-79
2022/03/23 11:05:33;;;;;;;6.77;5.43;;;20.60;77.10;;;;;;5115226;28;20166;-78
2022/03/23 11:08:23;;;;;;;7.87;4.67;;;20.90;74.40;;;;;;5108211;28;20191;-79
2022/03/23 11:15:46;;;;;;;8.87;6.20;;;22.30;65.80;;;;;;5111655;27;20224;-78
2022/03/23 11:16:52;;;;;;;12.47;7.17;;;23.30;62.30;;;;;;5116181;28;20927;-78
2022/03/23 11:19:19;;;;;;;10.37;6.90;;;23.50;59.50;;;;;;5116874;28;20202;-79
2022/03/23 11:21:58;;;;;;;13.90;7.47;;;24.20;56.40;;;;;;5116845;28;20550;-77
2022/03/23 11:24:26;;;;;;;8.93;5.83;;;22.10;61.20;;;;;;5116904;28;20586;-78
2022/03/23 11:26:52;;;;;;;13.93;7.47;;;22.00;61.30;;;;;;5098088;28;20545;-79
2022/03/23 11:29:21;;;;;;;11.23;5.87;;;22.70;59.60;;;;;;5118807;27;20207;-78
2022/03/23 11:31:48;;;;;;;8.60;6.10;;;22.40;59.00;;;;;;5099051;28;20285;-77
2022/03/23 11:34:18;;;;;;;5.87;4.23;;;22.50;59.60;;;;;;5116131;28;20572;-77
2022/03/23 11:36:47;;;;;;;15.87;7.17;;;23.50;58.50;;;;;;5116940;28;20182;-78
2022/03/23 11:39:13;;;;;;;13.13;5.63;;;23.50;57.40;;;;;;5115380;28;20213;-76
2022/03/23 11:41:38;;;;;;;10.93;5.70;;;24.10;56.70;;;;;;5123753;27;20273;-76
2022/03/23 11:44:04;;;;;;;15.60;5.93;;;24.00;56.00;;;;;;5103859;28;20183;-79
2022/03/23 11:46:31;;;;;;;11.13;7.80;;;24.10;56.30;;;;;;5114700;28;20235;-76
2022/03/23 11:49:24;;;;;;;10.73;6.70;;;24.60;54.50;;;;;;5096931;28;20203;-77
2022/03/23 11:52:01;;;;;;;10.57;6.97;;;25.50;54.50;;;;;;5113690;28;20264;-76
2022/03/23 11:55:36;;;;;;;15.23;6.67;;;26.20;52.00;;;;;;5113198;28;20174;-76
2022/03/23 11:57:16;;;;;;;10.07;7.87;;;26.70;51.30;;;;;;5112022;28;20715;-76
2022/03/23 11:59:42;;;;;;;12.03;5.93;;;26.10;51.00;;;;;;5113296;28;20191;-76
2022/03/23 12:02:09;;;;;;;11.90;5.70;;;27.70;50.10;;;;;;5111846;28;20175;-77
2022/03/23 12:04:34;;;;;;;13.47;7.10;;;28.60;48.90;;;;;;5113156;28;20186;-75
2022/03/23 12:07:06;;;;;;;16.93;7.60;;;28.70;47.90;;;;;;5113214;28;20175;-77
2022/03/23 12:09:40;;;;;;;7.57;6.63;;;28.60;46.70;;;;;;5107382;28;20198;-75
2022/03/23 12:12:11;;;;;;;9.90;5.17;;;28.60;45.70;;;;;;5112364;28;20517;-77
2022/03/23 12:14:38;;;;;;;12.77;6.80;;;31.30;44.80;;;;;;5103639;28;20175;-77
2022/03/23 12:17:26;;;;;;;16.20;6.70;;;31.80;42.90;;;;;;5113004;28;20209;-75
2022/03/23 12:19:57;;;;;;;13.43;7.27;;;30.60;43.30;;;;;;5112418;28;20167;-77
2022/03/23 12:22:35;;;;;;;12.03;6.20;;;28.60;42.50;;;;;;5112479;28;20175;-77
2022/03/23 12:25:06;;;;;;;8.93;6.40;;;29.60;43.50;;;;;;5112530;28;20584;-77
2022/03/23 12:27:53;;;;;;;7.37;5.17;;;30.10;42.30;;;;;;5102491;28;20654;-76
2022/03/23 12:30:37;;;;;;;15.70;7.57;;;29.60;42.20;;;;;;5094558;28;20551;-77
2022/03/23 12:33:10;;;;;;;14.73;7.17;;;30.00;42.20;;;;;;5105539;28;20170;-77
2022/03/23 12:35:36;;;;;;;16.97;9.33;;;28.50;42.80;;;;;;5112987;28;20176;-77
2022/03/23 12:38:04;;;;;;;13.57;7.90;;;28.30;43.70;;;;;;5112379;28;20210;-77
2022/03/23 12:41:02;;;;;;;11.60;5.73;;;27.00;44.40;;;;;;5112571;28;20189;-78
2022/03/23 12:43:42;;;;;;;11.10;7.03;;;27.10;43.50;;;;;;5112008;28;20261;-77
2022/03/23 12:46:23;;;;;;;24.43;8.67;;;27.40;44.10;;;;;;5096477;28;20178;-77
2022/03/23 13:00:25;;;;;;;12.97;6.30;;;30.50;40.00;;;;;;5112334;28;20227;-78
2022/03/23 13:03:05;;;;;;;23.40;8.90;;;29.70;41.10;;;;;;5093956;28;20202;-77
2022/03/23 13:05:53;;;;;;;10.47;6.63;;;29.90;40.80;;;;;;5112365;28;20171;-77
2022/03/23 13:08:27;;;;;;;12.57;7.87;;;30.30;40.50;;;;;;5111668;28;20729;-76
2022/03/23 13:11:00;;;;;;;11.20;8.03;;;30.20;39.60;;;;;;5103661;28;20212;-77
2022/03/23 13:13:32;;;;;;;13.30;8.07;;;26.70;39.60;;;;;;5112947;27;20714;-77
2022/03/23 13:16:01;;;;;;;10.27;6.10;;;26.80;41.00;;;;;;5112165;28;20171;-76
2022/03/23 13:18:29;;;;;;;12.87;6.10;;;27.40;41.80;;;;;;5108830;28;20251;-77
2022/03/23 13:20:57;;;;;;;7.77;5.13;;;26.90;40.10;;;;;;5111480;28;20714;-77
2022/03/23 13:23:23;;;;;;;9.17;6.20;;;27.10;38.80;;;;;;5090723;28;20187;-77
2022/03/23 13:26:09;;;;;;;12.13;6.93;;;27.60;37.50;;;;;;5111117;28;20554;-77